Time;durP1;ratioP1;P1;durP2;ratioP2;P2;SDS_P1;SDS_P2;PMS_P1;PMS_P2;Temp;Humidity;BMP_temperature;BMP_pressure;BME280_temperature;BME280_humidity;BME280_pressure;Samples;Min_cycle;Max_cycle;Signal;HPM_P1;HPM_P2
2022/12/01 00:01:26;;;;;;;97.82;17.67;;;5.70;99.90;;;;;;5028535;28;20045;-73
2022/12/01 00:03:53;;;;;;;97.05;18.90;;;5.70;99.90;;;;;;5014661;28;20042;-69
2022/12/01 00:06:21;;;;;;;103.43;18.45;;;5.70;99.90;;;;;;5033713;28;20046;-64
2022/12/01 00:11:47;;;;;;;104.35;18.65;;;5.80;99.90;;;;;;5041725;28;20757;-64
2022/12/01 00:14:15;;;;;;;115.60;17.95;;;5.70;99.90;;;;;;5020075;28;20108;-64
2022/12/01 00:16:43;;;;;;;116.40;17.98;;;5.70;99.90;;;;;;5032824;28;20061;-63
2022/12/01 00:19:11;;;;;;;100.07;18.73;;;5.80;99.90;;;;;;5024450;28;20041;-71
2022/12/01 00:21:38;;;;;;;115.75;18.90;;;5.70;99.90;;;;;;5019270;28;20045;-65
2022/12/01 00:24:08;;;;;;;127.82;20.05;;;5.70;99.90;;;;;;5030344;28;20044;-63
2022/12/01 00:26:37;;;;;;;;;;;5.70;99.90;;;;;;5007269;28;20528;-72
2022/12/01 00:29:04;;;;;;;98.75;17.17;;;5.70;99.90;;;;;;5036432;28;19920;-67
2022/12/01 00:31:33;;;;;;;111.38;19.33;;;5.70;99.90;;;;;;5047500;28;20048;-70
2022/12/01 00:34:00;;;;;;;113.03;19.70;;;5.70;99.90;;;;;;5037528;28;20046;-67
2022/12/01 00:36:33;;;;;;;137.43;20.85;;;5.70;99.90;;;;;;5015521;28;20497;-66
2022/12/01 00:39:01;;;;;;;114.72;19.40;;;5.70;99.90;;;;;;5023027;28;20501;-68
2022/12/01 00:41:28;;;;;;;118.22;20.25;;;5.70;99.90;;;;;;5029741;28;20133;-66
2022/12/01 00:43:56;;;;;;;118.05;20.25;;;5.70;99.90;;;;;;5025239;28;20053;-68
2022/12/01 00:46:24;;;;;;;114.03;20.67;;;5.70;99.90;;;;;;5049125;28;20052;-69
2022/12/01 00:48:52;;;;;;;103.15;18.20;;;5.70;99.90;;;;;;5024174;28;20068;-71
2022/12/01 00:51:19;;;;;;;103.28;19.80;;;5.70;99.90;;;;;;5016716;28;20395;-74
2022/12/01 00:53:47;;;;;;;117.45;21.83;;;5.70;99.90;;;;;;5019028;28;20439;-76
2022/12/01 00:56:14;;;;;;;104.75;19.90;;;5.80;99.90;;;;;;5027776;28;20038;-74
2022/12/01 00:58:42;;;;;;;107.53;20.52;;;5.80;99.90;;;;;;5028749;28;20530;-65
2022/12/01 01:01:09;;;;;;;90.55;18.40;;;5.80;99.90;;;;;;5027068;28;20045;-67
2022/12/01 01:03:37;;;;;;;114.03;18.50;;;5.80;99.90;;;;;;5010537;28;20061;-68
2022/12/01 01:06:10;;;;;;;110.82;19.08;;;5.80;99.90;;;;;;5044019;28;20045;-71
2022/12/01 01:08:38;;;;;;;113.65;20.05;;;5.80;99.90;;;;;;5036102;28;20044;-70
2022/12/01 01:11:07;;;;;;;103.88;19.33;;;5.80;99.90;;;;;;5027318;28;20057;-67
2022/12/01 01:13:36;;;;;;;94.05;18.83;;;;;;;;;;5036499;28;20041;-67
2022/12/01 01:16:08;;;;;;;95.70;18.63;;;5.90;99.90;;;;;;5034970;28;20049;-67
2022/12/01 01:18:36;;;;;;;93.70;19.33;;;5.90;99.90;;;;;;5027197;28;20053;-65
2022/12/01 01:21:07;;;;;;;93.63;19.95;;;5.90;99.90;;;;;;5021290;28;20048;-64
2022/12/01 01:23:37;;;;;;;96.63;19.80;;;5.90;99.90;;;;;;5041274;28;20245;-67
2022/12/01 01:26:14;;;;;;;93.57;18.95;;;5.90;99.90;;;;;;5042075;28;20033;-69
2022/12/01 01:28:45;;;;;;;90.47;18.83;;;5.90;99.90;;;;;;5028504;28;20058;-65
2022/12/01 01:31:15;;;;;;;87.15;18.08;;;5.90;99.90;;;;;;5044086;28;20041;-69
2022/12/01 01:33:44;;;;;;;91.43;18.60;;;5.90;99.90;;;;;;5014346;28;20367;-67
2022/12/01 01:36:12;;;;;;;79.60;17.15;;;5.90;99.90;;;;;;5028405;28;20409;-68
2022/12/01 01:38:40;;;;;;;78.47;18.20;;;5.90;99.90;;;;;;5030871;28;20053;-70
2022/12/01 01:41:09;;;;;;;69.85;16.50;;;5.90;99.90;;;;;;5047936;28;20044;-63
2022/12/01 01:43:51;;;;;;;63.50;15.82;;;6.00;99.90;;;;;;5042167;28;20477;-67
2022/12/01 01:46:19;;;;;;;63.50;16.95;;;;;;;;;;5008320;28;20046;-65
2022/12/01 01:48:52;;;;;;;65.22;18.20;;;5.90;99.90;;;;;;5020214;28;20044;-72
2022/12/01 01:51:32;;;;;;;72.03;19.63;;;6.00;99.90;;;;;;5028460;28;20061;-71
2022/12/01 01:54:19;;;;;;;77.90;19.70;;;6.00;99.90;;;;;;5027806;28;20057;-71
2022/12/01 01:56:50;;;;;;;67.57;17.98;;;6.00;99.90;;;;;;5015326;28;20582;-68
2022/12/01 01:59:28;;;;;;;60.45;18.38;;;6.00;99.90;;;;;;5027799;28;20393;-65
2022/12/01 02:02:04;;;;;;;68.80;17.83;;;6.00;99.90;;;;;;5027864;28;20052;-70
2022/12/01 02:04:40;;;;;;;60.92;17.00;;;6.00;99.90;;;;;;5031168;28;20049;-64
2022/12/01 02:07:10;;;;;;;68.13;17.90;;;6.00;99.90;;;;;;5038904;28;20041;-67
2022/12/01 02:09:38;;;;;;;58.35;16.15;;;6.00;99.90;;;;;;5010055;28;20363;-64
2022/12/01 02:12:14;;;;;;;71.18;18.63;;;6.00;99.90;;;;;;5008274;28;20050;-66
2022/12/01 02:14:54;;;;;;;77.03;19.40;;;6.00;99.90;;;;;;5016062;28;20049;-66
2022/12/01 02:17:36;;;;;;;76.05;19.20;;;6.00;99.90;;;;;;5027161;28;20049;-64
2022/12/01 02:20:20;;;;;;;79.55;20.33;;;6.00;99.90;;;;;;5018947;28;20049;-64
2022/12/01 02:23:02;;;;;;;91.72;21.73;;;6.00;99.90;;;;;;5011974;28;20037;-63
2022/12/01 02:25:54;;;;;;;86.13;21.10;;;6.00;99.90;;;;;;5030921;28;20053;-64
2022/12/01 02:29:01;;;;;;;98.38;23.20;;;6.00;99.90;;;;;;5039297;28;20045;-64
2022/12/01 02:31:47;;;;;;;102.50;22.60;;;6.00;99.90;;;;;;5020244;28;20038;-65
2022/12/01 02:34:36;;;;;;;93.35;23.08;;;6.00;99.90;;;;;;5014409;28;20406;-67
2022/12/01 02:37:09;;;;;;;105.20;24.30;;;6.00;99.90;;;;;;5015181;28;20038;-64
2022/12/01 02:40:02;;;;;;;98.43;22.80;;;6.00;99.90;;;;;;5032882;28;20513;-68
2022/12/01 02:42:52;;;;;;;89.78;22.00;;;6.00;99.90;;;;;;5007539;28;20406;-75
2022/12/01 02:45:28;;;;;;;104.97;23.05;;;6.00;99.90;;;;;;5030387;28;20064;-72
2022/12/01 02:48:00;;;;;;;89.18;20.95;;;6.00;99.90;;;;;;5034604;28;20395;-81
2022/12/01 02:50:31;;;;;;;99.63;22.10;;;5.90;99.90;;;;;;5022111;28;20072;-77
2022/12/01 02:53:02;;;;;;;107.07;23.50;;;6.00;99.90;;;;;;5027488;28;20041;-69
2022/12/01 02:55:29;;;;;;;102.40;22.15;;;5.90;99.90;;;;;;5032790;28;20404;-77
2022/12/01 02:57:57;;;;;;;91.53;22.50;;;6.00;99.90;;;;;;5016112;28;20053;-76
2022/12/01 03:00:25;;;;;;;86.10;22.08;;;6.00;99.90;;;;;;5014695;28;20058;-72
2022/12/01 03:02:55;;;;;;;104.00;23.73;;;5.90;99.90;;;;;;5014943;28;20037;-73
2022/12/01 03:05:34;;;;;;;82.35;21.85;;;6.00;99.90;;;;;;5014411;28;20425;-74
2022/12/01 03:08:25;;;;;;;98.87;24.30;;;5.90;99.90;;;;;;5015139;28;20048;-73
2022/12/01 03:10:55;;;;;;;101.18;22.58;;;5.90;99.90;;;;;;5014639;28;20295;-80
2022/12/01 03:13:41;;;;;;;97.55;25.05;;;5.90;99.90;;;;;;5014736;28;20068;-78
2022/12/01 03:16:22;;;;;;;102.00;25.38;;;5.90;99.90;;;;;;5014653;28;20052;-68
2022/12/01 03:18:53;;;;;;;104.03;26.52;;;5.90;99.90;;;;;;5017826;28;20046;-78
2022/12/01 03:21:51;;;;;;;93.22;23.55;;;5.90;99.90;;;;;;5054906;28;20057;-67
2022/12/01 03:24:22;;;;;;;97.25;24.23;;;5.90;99.90;;;;;;5053585;28;20515;-71
2022/12/01 03:26:55;;;;;;;102.95;27.10;;;5.90;99.90;;;;;;5031656;28;20046;-72
2022/12/01 03:29:46;;;;;;;96.95;24.05;;;6.00;99.90;;;;;;5014329;28;20386;-66
2022/12/01 03:32:22;;;;;;;105.65;24.27;;;6.00;99.90;;;;;;5015163;28;20371;-63
2022/12/01 03:35:21;;;;;;;107.57;26.02;;;5.90;99.90;;;;;;5033831;28;20249;-63
2022/12/01 03:38:01;;;;;;;87.80;22.80;;;5.90;99.90;;;;;;5027616;28;20049;-63
2022/12/01 03:40:29;;;;;;;;;;;5.90;99.90;;;;;;5034353;28;20053;-67
2022/12/01 03:43:01;;;;;;;99.20;24.17;;;5.90;99.90;;;;;;5033537;28;19921;-64
2022/12/01 03:46:06;;;;;;;79.35;19.70;;;5.90;99.90;;;;;;5033580;28;20041;-63
2022/12/01 03:48:34;;;;;;;76.95;20.73;;;6.00;99.90;;;;;;5031877;28;20054;-63
2022/12/01 03:51:20;;;;;;;80.45;19.98;;;5.90;99.90;;;;;;5052501;28;20076;-63
2022/12/01 03:54:15;;;;;;;76.82;20.60;;;5.90;99.90;;;;;;5053404;28;20052;-71
2022/12/01 03:56:53;;;;;;;81.13;21.23;;;5.90;99.90;;;;;;5053587;28;20057;-66
2022/12/01 03:59:24;;;;;;;80.45;19.05;;;5.90;99.90;;;;;;5053582;28;20049;-62
2022/12/01 04:01:52;;;;;;;79.85;20.60;;;5.90;99.90;;;;;;5051832;28;20057;-64
2022/12/01 04:04:19;;;;;;;80.45;23.38;;;5.90;99.90;;;;;;5053221;28;20045;-64
2022/12/01 04:06:49;;;;;;;85.95;22.50;;;5.90;99.90;;;;;;5053289;28;20392;-64
2022/12/01 04:09:17;;;;;;;78.05;22.20;;;5.90;99.90;;;;;;5053317;28;20052;-65
2022/12/01 04:14:30;;;;;;;75.50;24.15;;;6.00;99.90;;;;;;5053012;28;20417;-76
2022/12/01 04:16:58;;;;;;;82.35;22.05;;;6.00;99.90;;;;;;5052920;28;20049;-73
2022/12/01 04:19:25;;;;;;;85.00;24.17;;;6.00;99.90;;;;;;5052853;28;20048;-67
2022/12/01 04:21:53;;;;;;;82.88;24.88;;;6.00;99.90;;;;;;5053063;28;20063;-67
2022/12/01 04:24:20;;;;;;;79.78;24.17;;;5.90;99.90;;;;;;5052992;28;20056;-65
2022/12/01 04:26:48;;;;;;;81.80;24.23;;;6.00;99.90;;;;;;5045551;28;20049;-67
2022/12/01 04:29:15;;;;;;;82.03;23.77;;;6.00;99.90;;;;;;5032846;28;20045;-68
2022/12/01 04:31:43;;;;;;;75.07;22.77;;;6.00;99.90;;;;;;5032812;28;20053;-67
2022/12/01 04:34:11;;;;;;;77.15;24.48;;;6.00;99.90;;;;;;5032841;28;20049;-66
2022/12/01 04:36:38;;;;;;;70.10;23.45;;;6.00;99.90;;;;;;5031122;28;20046;-66
2022/12/01 04:39:06;;;;;;;63.10;22.30;;;6.00;99.90;;;;;;5032668;28;20397;-69
2022/12/01 04:41:33;;;;;;;64.10;21.80;;;6.00;99.90;;;;;;5031683;28;20046;-72
2022/12/01 04:44:01;;;;;;;67.47;22.52;;;6.00;99.90;;;;;;5032642;28;20041;-65
2022/12/01 04:46:28;;;;;;;66.68;22.00;;;6.00;99.90;;;;;;5032449;28;20384;-62
2022/12/01 04:48:56;;;;;;;69.85;24.10;;;6.00;99.90;;;;;;5034626;28;20053;-65
2022/12/01 04:51:24;;;;;;;81.10;25.30;;;6.00;99.90;;;;;;5052509;28;20041;-64
2022/12/01 04:53:51;;;;;;;77.75;24.67;;;6.00;99.90;;;;;;5052185;28;20060;-64
2022/12/01 04:56:19;;;;;;;71.28;22.48;;;5.90;99.90;;;;;;5052482;28;20049;-64
2022/12/01 04:58:46;;;;;;;71.63;23.55;;;6.00;99.90;;;;;;5052500;28;20385;-81
2022/12/01 05:01:17;;;;;;;75.45;24.98;;;6.00;99.90;;;;;;5051949;28;20044;-71
2022/12/01 05:03:48;;;;;;;59.42;21.15;;;6.00;99.90;;;;;;5052257;28;20037;-71
2022/12/01 05:06:21;;;;;;;70.43;23.85;;;6.00;99.90;;;;;;5052312;28;20056;-75
2022/12/01 05:08:50;;;;;;;52.42;19.00;;;6.00;99.90;;;;;;5052312;28;20041;-76
2022/12/01 05:11:18;;;;;;;69.05;24.50;;;5.90;99.90;;;;;;5052139;28;20045;-75
2022/12/01 05:13:47;;;;;;;61.75;21.08;;;5.90;99.90;;;;;;5034228;28;20057;-76
2022/12/01 05:16:27;;;;;;;49.77;17.67;;;5.90;99.90;;;;;;5051887;28;20067;-79
2022/12/01 05:21:46;;;;;;;50.85;19.42;;;5.80;99.90;;;;;;5052052;28;20404;-77
2022/12/01 05:24:14;;;;;;;55.80;19.13;;;5.90;99.90;;;;;;5051748;28;20037;-74
2022/12/01 05:26:43;;;;;;;56.60;20.15;;;5.90;99.90;;;;;;5033835;28;20290;-77
2022/12/01 05:29:11;;;;;;;61.92;22.40;;;5.90;99.90;;;;;;5031885;28;20048;-78
2022/12/01 05:31:39;;;;;;;68.22;24.25;;;5.90;99.90;;;;;;5031623;28;20041;-79
2022/12/01 05:34:07;;;;;;;70.68;24.85;;;5.90;99.90;;;;;;5032157;28;20393;-75
2022/12/01 05:36:35;;;;;;;58.92;21.75;;;5.90;99.90;;;;;;5031657;28;20433;-76
2022/12/01 05:39:04;;;;;;;62.88;21.88;;;5.90;99.90;;;;;;5031705;28;20041;-77
2022/12/01 05:41:31;;;;;;;69.03;20.45;;;5.80;99.90;;;;;;5030912;28;20400;-75
2022/12/01 05:43:59;;;;;;;59.15;22.60;;;5.80;99.90;;;;;;5031684;28;20378;-79
2022/12/01 05:46:27;;;;;;;59.67;21.05;;;5.80;99.90;;;;;;5031811;28;20052;-72
2022/12/01 05:48:54;;;;;;;66.78;21.67;;;5.80;99.90;;;;;;5014767;28;20041;-73
2022/12/01 05:51:22;;;;;;;58.42;20.60;;;5.80;99.90;;;;;;5048567;28;20053;-75
2022/12/01 05:53:49;;;;;;;64.65;22.65;;;5.80;99.90;;;;;;5049848;28;20056;-71
2022/12/01 05:56:17;;;;;;;69.20;24.27;;;5.00;99.90;;;;;;5050606;28;20047;-66
2022/12/01 05:58:44;;;;;;;58.97;19.85;;;5.80;99.90;;;;;;5034194;28;20042;-66
2022/12/01 06:01:12;;;;;;;61.05;21.55;;;5.60;99.90;;;;;;5027669;28;20481;-64
2022/12/01 06:03:39;;;;;;;56.30;22.10;;;5.70;99.90;;;;;;5007770;28;20049;-64
2022/12/01 06:06:07;;;;;;;60.28;22.27;;;5.70;99.90;;;;;;5005163;28;20513;-63
2022/12/01 06:08:35;;;;;;;64.97;21.92;;;5.70;99.90;;;;;;5016852;28;20053;-64
2022/12/01 06:11:02;;;;;;;60.45;21.35;;;5.70;99.90;;;;;;5025094;28;20041;-65
2022/12/01 06:13:30;;;;;;;72.72;21.33;;;5.70;99.90;;;;;;5023394;28;20037;-64
2022/12/01 06:15:59;;;;;;;67.72;22.08;;;5.70;99.90;;;;;;5006978;28;20060;-79
2022/12/01 06:18:30;;;;;;;66.70;23.52;;;5.70;99.90;;;;;;5006250;28;20549;-72
2022/12/01 06:20:57;;;;;;;70.18;21.95;;;5.70;99.90;;;;;;5042140;28;20052;-75
2022/12/01 06:23:25;;;;;;;68.47;22.85;;;;;;;;;;5044627;28;20056;-75
2022/12/01 06:25:57;;;;;;;69.88;21.83;;;5.70;99.90;;;;;;5043958;28;20057;-65
2022/12/01 06:28:25;;;;;;;65.07;21.27;;;5.70;99.90;;;;;;5032100;28;20405;-65
2022/12/01 06:30:52;;;;;;;64.75;21.98;;;5.70;99.90;;;;;;5024937;28;20049;-65
2022/12/01 06:33:27;;;;;;;59.85;20.38;;;5.80;99.90;;;;;;5033034;28;20041;-64
2022/12/01 06:35:59;;;;;;;57.10;19.65;;;5.70;99.90;;;;;;5030292;28;20045;-65
2022/12/01 06:38:30;;;;;;;53.80;18.42;;;5.70;99.90;;;;;;5034810;28;20061;-63
2022/12/01 06:40:58;;;;;;;56.33;19.23;;;5.70;99.90;;;;;;5026743;28;20374;-64
2022/12/01 06:43:26;;;;;;;53.10;18.35;;;5.70;99.90;;;;;;5027510;28;20045;-64
2022/12/01 06:45:54;;;;;;;53.72;18.80;;;5.70;99.90;;;;;;5026186;28;20050;-64
2022/12/01 06:48:28;;;;;;;59.22;18.40;;;5.60;99.90;;;;;;5017167;28;20397;-64
2022/12/01 06:50:57;;;;;;;54.90;18.48;;;5.60;99.90;;;;;;5041202;28;20053;-64
2022/12/01 06:53:27;;;;;;;60.15;19.35;;;5.60;99.90;;;;;;5036696;28;20477;-63
2022/12/01 06:56:03;;;;;;;61.53;18.05;;;5.60;99.90;;;;;;5023263;28;20053;-65
2022/12/01 06:58:31;;;;;;;61.95;21.38;;;5.60;99.90;;;;;;5027492;28;20049;-64
2022/12/01 07:01:06;;;;;;;65.65;19.95;;;5.60;99.90;;;;;;5025964;28;20048;-64
2022/12/01 07:03:34;;;;;;;64.88;20.77;;;5.60;99.90;;;;;;5015422;28;20038;-63
2022/12/01 07:06:02;;;;;;;68.85;20.00;;;5.60;99.90;;;;;;5005103;28;20057;-64
2022/12/01 07:08:31;;;;;;;67.50;20.35;;;5.60;99.90;;;;;;5018952;28;20033;-64
2022/12/01 07:11:00;;;;;;;68.57;20.83;;;5.60;99.90;;;;;;5028626;28;20385;-64
2022/12/01 07:13:28;;;;;;;65.05;19.35;;;5.50;99.90;;;;;;5026029;28;20046;-64
2022/12/01 07:16:04;;;;;;;67.97;20.15;;;5.60;99.90;;;;;;5029564;28;20041;-64
2022/12/01 07:18:33;;;;;;;77.13;20.27;;;5.50;99.90;;;;;;5024876;28;20050;-64
2022/12/01 07:21:03;;;;;;;71.68;18.50;;;5.50;99.90;;;;;;5020256;28;20050;-67
2022/12/01 07:23:30;;;;;;;;;;;5.50;99.90;;;;;;5030874;28;20068;-66
2022/12/01 07:26:03;;;;;;;55.72;16.63;;;5.50;99.90;;;;;;5042652;28;20391;-72
2022/12/01 07:28:31;;;;;;;55.03;16.38;;;5.50;99.90;;;;;;5022485;28;20046;-71
2022/12/01 07:31:19;;;;;;;54.15;16.92;;;5.50;99.90;;;;;;5029457;28;20044;-78
2022/12/01 07:33:47;;;;;;;54.10;16.65;;;5.50;99.90;;;;;;5022491;28;20042;-80
2022/12/01 07:36:14;;;;;;;57.63;16.70;;;5.50;99.90;;;;;;5025656;28;20516;-75
2022/12/01 07:38:42;;;;;;;50.65;17.17;;;5.50;99.90;;;;;;5030437;28;20060;-70
2022/12/01 07:41:15;;;;;;;56.92;17.08;;;5.50;99.90;;;;;;5014855;28;20483;-69
2022/12/01 07:43:43;;;;;;;51.67;14.98;;;5.50;99.90;;;;;;5027987;28;20045;-78
2022/12/01 07:46:19;;;;;;;56.63;17.27;;;5.50;99.90;;;;;;5027616;28;20050;-80
2022/12/01 07:48:51;;;;;;;54.25;15.90;;;5.50;99.90;;;;;;5045510;28;20067;-64
2022/12/01 07:51:20;;;;;;;60.03;17.65;;;5.50;99.90;;;;;;5015639;28;20378;-64
2022/12/01 07:53:49;;;;;;;57.75;16.25;;;5.50;99.90;;;;;;5034926;28;20049;-64
2022/12/01 07:56:18;;;;;;;57.45;18.73;;;5.40;99.90;;;;;;5036660;28;20045;-64
2022/12/01 07:58:46;;;;;;;58.67;17.97;;;5.50;99.90;;;;;;5023923;28;20041;-67
2022/12/01 08:01:19;;;;;;;58.15;19.75;;;5.50;99.90;;;;;;5028035;28;20065;-64
2022/12/01 08:03:48;;;;;;;58.47;17.77;;;5.50;99.90;;;;;;5021509;28;20045;-76
2022/12/01 08:06:17;;;;;;;58.07;17.07;;;5.50;99.90;;;;;;5007260;28;20379;-67
2022/12/01 08:08:46;;;;;;;57.93;16.60;;;5.50;99.90;;;;;;5028486;28;20286;-71
2022/12/01 08:11:19;;;;;;;48.03;16.90;;;5.50;99.90;;;;;;5030003;28;20102;-68
2022/12/01 08:13:48;;;;;;;42.67;16.35;;;5.50;99.90;;;;;;5029418;28;20054;-66
2022/12/01 08:16:18;;;;;;;42.83;15.90;;;5.50;99.90;;;;;;5013529;28;20045;-75
2022/12/01 08:18:46;;;;;;;41.63;15.80;;;5.50;99.90;;;;;;5018576;28;20481;-78
2022/12/01 08:21:17;;;;;;;52.67;16.42;;;5.50;99.90;;;;;;5026011;28;20052;-71
2022/12/01 08:23:46;;;;;;;52.33;17.35;;;5.50;99.90;;;;;;5031392;28;20063;-74
2022/12/01 08:26:16;;;;;;;50.65;16.80;;;5.50;99.90;;;;;;5050836;28;20394;-64
2022/12/01 08:28:45;;;;;;;56.35;17.27;;;5.50;99.90;;;;;;5034382;28;20060;-65
2022/12/01 08:31:26;;;;;;;50.63;17.25;;;5.50;99.90;;;;;;5015427;28;20052;-64
2022/12/01 08:33:55;;;;;;;50.88;17.75;;;5.50;99.90;;;;;;5013787;28;20048;-64
2022/12/01 08:36:23;;;;;;;53.92;17.58;;;5.40;99.90;;;;;;5008013;28;20273;-68
2022/12/01 08:38:53;;;;;;;55.45;16.83;;;5.50;99.90;;;;;;5016119;28;20049;-64
2022/12/01 08:41:23;;;;;;;46.70;14.90;;;5.50;99.90;;;;;;5018299;28;20049;-69
2022/12/01 08:43:51;;;;;;;48.42;15.27;;;6.10;99.90;;;;;;5020154;28;20049;-67
2022/12/01 08:46:31;;;;;;;47.78;15.15;;;5.50;99.90;;;;;;5011655;28;20050;-65
2022/12/01 08:48:59;;;;;;;57.35;16.33;;;5.50;99.90;;;;;;5018213;28;20421;-64
2022/12/01 08:51:27;;;;;;;47.10;15.68;;;5.50;99.90;;;;;;5028312;28;20401;-71
2022/12/01 08:53:57;;;;;;;51.90;15.52;;;5.50;99.90;;;;;;5033929;28;20068;-64
2022/12/01 08:56:28;;;;;;;56.43;16.63;;;5.50;99.90;;;;;;5013000;28;20056;-64
2022/12/01 08:58:56;;;;;;;53.15;17.52;;;5.50;99.90;;;;;;5028760;28;20302;-72
2022/12/01 09:01:25;;;;;;;56.53;17.45;;;5.60;99.90;;;;;;5029086;28;20054;-68
2022/12/01 09:04:09;;;;;;;57.58;16.80;;;5.50;99.90;;;;;;5031603;28;20068;-74
2022/12/01 09:06:40;;;;;;;56.65;18.13;;;5.60;99.90;;;;;;5008579;28;20053;-78
2022/12/01 09:09:15;;;;;;;53.60;16.17;;;5.60;99.90;;;;;;5023480;28;20065;-70
2022/12/01 09:11:44;;;;;;;59.88;18.38;;;5.60;99.90;;;;;;5011640;28;20057;-77
2022/12/01 09:14:12;;;;;;;59.58;18.42;;;5.60;99.90;;;;;;5026007;28;20060;-72
2022/12/01 09:16:42;;;;;;;59.70;16.02;;;5.70;99.90;;;;;;5024858;28;20049;-64
2022/12/01 09:19:10;;;;;;;57.13;16.80;;;5.70;99.90;;;;;;5020025;28;20045;-63
2022/12/01 09:21:42;;;;;;;56.05;16.90;;;5.60;99.90;;;;;;5014962;28;20046;-67
2022/12/01 09:24:10;;;;;;;;;;;5.60;99.90;;;;;;5023577;28;20378;-63
2022/12/01 09:26:38;;;;;;;56.72;15.40;;;5.70;99.90;;;;;;5028654;28;19921;-63
2022/12/01 09:29:08;;;;;;;62.33;17.30;;;5.70;99.90;;;;;;5013991;28;20057;-63
2022/12/01 09:31:35;;;;;;;;;;;5.70;99.90;;;;;;5010401;28;20049;-65
2022/12/01 09:34:10;;;;;;;46.25;15.30;;;4.90;99.90;;;;;;5023012;28;19944;-65
2022/12/01 09:36:38;;;;;;;56.20;16.88;;;5.60;99.90;;;;;;5008781;28;20125;-65
2022/12/01 09:39:10;;;;;;;53.60;16.33;;;5.70;99.90;;;;;;5024151;28;20046;-64
2022/12/01 09:41:46;;;;;;;60.25;17.25;;;5.70;99.90;;;;;;5008121;28;20045;-64
2022/12/01 09:44:44;;;;;;;60.20;17.48;;;5.70;99.90;;;;;;5024485;28;20046;-68
2022/12/01 09:47:28;;;;;;;61.65;19.40;;;5.70;99.90;;;;;;5020585;28;20049;-64
2022/12/01 09:50:05;;;;;;;55.75;17.83;;;5.70;99.90;;;;;;5014934;28;20049;-63
2022/12/01 09:52:39;;;;;;;61.13;19.33;;;5.80;99.90;;;;;;5009275;28;20655;-70
2022/12/01 09:55:15;;;;;;;58.17;18.38;;;5.80;99.90;;;;;;5026597;28;20049;-68
2022/12/01 09:57:46;;;;;;;60.28;17.73;;;5.80;99.90;;;;;;5015192;28;20054;-65
2022/12/01 10:00:18;;;;;;;59.28;19.05;;;5.80;99.90;;;;;;5006312;28;20049;-69
2022/12/01 10:02:58;;;;;;;53.38;17.02;;;5.90;99.90;;;;;;5013033;28;20052;-71
2022/12/01 10:05:32;;;;;;;60.40;19.10;;;5.90;99.90;;;;;;5005599;28;20516;-74
2022/12/01 10:08:04;;;;;;;62.28;19.13;;;5.90;99.90;;;;;;5013193;28;20050;-75
2022/12/01 10:10:50;;;;;;;59.60;19.60;;;5.90;99.90;;;;;;5020832;28;20042;-72
2022/12/01 10:13:24;;;;;;;68.07;20.45;;;5.90;99.90;;;;;;5017812;28;20405;-72
2022/12/01 10:16:01;;;;;;;65.07;18.58;;;6.00;99.90;;;;;;5019274;28;20597;-77
2022/12/01 10:19:09;;;;;;;59.63;18.10;;;6.00;99.90;;;;;;5021060;28;20049;-77
2022/12/01 10:22:13;;;;;;;60.35;19.13;;;6.00;99.90;;;;;;5023935;28;20060;-71
2022/12/01 10:25:04;;;;;;;60.50;18.75;;;6.00;99.90;;;;;;5020805;28;20033;-77
2022/12/01 10:27:53;;;;;;;59.75;18.90;;;6.00;99.90;;;;;;5023443;28;20050;-64
2022/12/01 10:30:22;;;;;;;68.18;18.75;;;6.00;99.90;;;;;;5019459;28;20042;-71
2022/12/01 10:32:51;;;;;;;69.53;22.17;;;6.00;99.90;;;;;;5014433;28;20046;-66
2022/12/01 10:35:28;;;;;;;69.20;20.57;;;6.00;99.90;;;;;;5012257;28;20057;-72
2022/12/01 10:38:00;;;;;;;61.67;20.00;;;6.00;99.90;;;;;;5014071;28;20045;-69
2022/12/01 10:40:28;;;;;;;64.43;19.98;;;6.00;99.90;;;;;;5010166;28;20046;-67
2022/12/01 10:42:56;;;;;;;61.85;19.10;;;6.00;99.90;;;;;;5008144;28;20045;-78
2022/12/01 10:45:35;;;;;;;63.47;19.17;;;6.00;99.90;;;;;;5008189;28;20045;-76
2022/12/01 10:48:10;;;;;;;59.15;20.67;;;6.00;99.90;;;;;;5011716;28;20050;-77
2022/12/01 10:50:38;;;;;;;72.22;21.55;;;6.00;99.90;;;;;;5013483;28;20048;-65
2022/12/01 10:53:05;;;;;;;73.20;20.65;;;6.00;99.90;;;;;;5020934;28;20195;-79
2022/12/01 10:55:38;;;;;;;63.65;20.33;;;6.10;99.90;;;;;;5010311;28;20064;-66
2022/12/01 10:58:16;;;;;;;65.30;20.65;;;6.10;99.90;;;;;;5017281;28;20042;-65
2022/12/01 11:00:55;;;;;;;62.95;20.50;;;6.20;99.90;;;;;;5014051;28;20049;-65
2022/12/01 11:03:30;;;;;;;65.07;20.77;;;6.20;99.90;;;;;;5016277;28;20025;-65
2022/12/01 11:06:03;;;;;;;70.35;21.58;;;6.20;99.90;;;;;;5006566;28;20041;-67
2022/12/01 11:08:40;;;;;;;53.38;18.33;;;6.10;99.90;;;;;;5037346;28;20066;-66
2022/12/01 11:11:31;;;;;;;56.92;19.70;;;6.10;99.90;;;;;;5028954;28;20385;-64
2022/12/01 11:14:03;;;;;;;73.95;22.52;;;6.10;99.90;;;;;;5014922;28;20049;-64
2022/12/01 11:16:43;;;;;;;68.30;19.88;;;6.10;99.90;;;;;;5014544;28;20048;-64
2022/12/01 11:19:33;;;;;;;72.47;26.48;;;6.10;99.90;;;;;;5031367;28;20045;-64
2022/12/01 11:22:31;;;;;;;63.97;21.52;;;6.10;99.90;;;;;;5010998;28;20042;-63
2022/12/01 11:25:04;;;;;;;62.17;21.48;;;6.20;99.90;;;;;;5013372;28;20053;-64
2022/12/01 11:27:36;;;;;;;59.25;20.27;;;6.20;99.90;;;;;;5018605;28;20584;-64
2022/12/01 11:30:21;;;;;;;67.63;21.20;;;6.20;99.90;;;;;;5025765;28;20068;-64
2022/12/01 11:33:03;;;;;;;53.90;18.48;;;6.20;99.90;;;;;;5007508;28;20046;-64
2022/12/01 11:35:34;;;;;;;56.08;18.13;;;6.20;99.90;;;;;;5014658;28;20497;-64
2022/12/01 11:38:05;;;;;;;60.40;19.88;;;6.20;99.90;;;;;;5017387;28;20056;-64
2022/12/01 11:40:54;;;;;;;59.38;19.58;;;6.20;99.90;;;;;;5010561;28;20049;-63
2022/12/01 11:43:32;;;;;;;60.17;20.83;;;6.20;99.90;;;;;;5016410;28;20072;-64
2022/12/01 11:46:07;;;;;;;62.08;20.98;;;6.20;99.90;;;;;;5026555;28;20513;-63
2022/12/01 11:48:35;;;;;;;60.55;20.88;;;6.20;99.90;;;;;;5017173;28;20064;-63
2022/12/01 11:51:25;;;;;;;52.33;18.40;;;6.30;99.90;;;;;;5010096;28;20042;-63
2022/12/01 11:54:22;;;;;;;46.55;17.50;;;6.30;99.90;;;;;;5032419;28;20507;-64
2022/12/01 11:56:51;;;;;;;53.70;19.23;;;6.30;99.90;;;;;;5009544;28;20053;-64
2022/12/01 11:59:39;;;;;;;52.55;19.23;;;6.30;99.90;;;;;;5024922;28;20249;-64
2022/12/01 12:02:34;;;;;;;53.22;19.02;;;6.30;99.90;;;;;;5014401;28;20042;-64
2022/12/01 12:05:16;;;;;;;59.40;21.38;;;6.30;99.90;;;;;;5011584;28;20045;-70
2022/12/01 12:07:58;;;;;;;51.92;19.65;;;6.40;99.90;;;;;;5012584;28;20041;-64
2022/12/01 12:10:37;;;;;;;58.13;19.95;;;6.40;99.90;;;;;;5010307;28;20046;-63
2022/12/01 12:13:21;;;;;;;60.83;21.00;;;6.30;99.90;;;;;;5014176;28;20396;-64
2022/12/01 12:16:14;;;;;;;60.78;21.80;;;6.30;99.90;;;;;;5024394;28;20054;-65
2022/12/01 12:19:00;;;;;;;56.58;21.23;;;6.30;99.90;;;;;;5019622;28;20068;-63
2022/12/01 12:21:33;;;;;;;55.53;20.20;;;6.30;99.90;;;;;;5015963;28;20049;-62
2022/12/01 12:24:18;;;;;;;63.80;21.88;;;6.30;99.90;;;;;;5010520;28;20409;-64
2022/12/01 12:27:23;;;;;;;64.80;22.58;;;6.40;99.90;;;;;;5015223;28;20045;-75
2022/12/01 12:30:29;;;;;;;70.70;23.33;;;6.30;99.90;;;;;;5025540;28;20048;-74
2022/12/01 12:33:21;;;;;;;58.25;20.15;;;6.30;99.90;;;;;;5016700;28;20046;-77
2022/12/01 12:36:11;;;;;;;61.88;22.25;;;6.30;99.90;;;;;;5019180;28;20052;-78
2022/12/01 12:38:56;;;;;;;68.70;23.73;;;6.40;99.90;;;;;;5016203;28;20537;-76
2022/12/01 12:41:34;;;;;;;54.58;21.88;;;6.40;99.90;;;;;;5013904;28;20054;-67
2022/12/01 12:44:38;;;;;;;61.25;21.20;;;6.40;99.90;;;;;;5015607;28;20762;-68
2022/12/01 12:47:06;;;;;;;54.38;21.33;;;6.40;99.90;;;;;;5012460;28;20061;-77
2022/12/01 12:49:55;;;;;;;65.38;24.00;;;6.30;99.90;;;;;;5016864;28;20041;-73
2022/12/01 12:52:30;;;;;;;66.13;23.25;;;6.40;99.90;;;;;;5014911;28;20524;-67
2022/12/01 12:55:02;;;;;;;65.15;22.98;;;6.30;99.90;;;;;;5016563;28;20384;-67
2022/12/01 12:57:32;;;;;;;74.30;24.50;;;6.30;99.90;;;;;;5009871;28;20060;-64
2022/12/01 13:00:15;;;;;;;;;;;6.30;99.90;;;;;;5009672;28;20064;-68
2022/12/01 13:03:08;;;;;;;69.65;23.00;;;6.40;99.90;;;;;;5006603;28;19924;-64
2022/12/01 13:05:40;;;;;;;60.63;22.17;;;6.40;99.90;;;;;;5010478;28;20065;-67
2022/12/01 13:08:15;;;;;;;70.78;23.38;;;6.40;99.90;;;;;;5008927;28;20474;-77
2022/12/01 13:10:49;;;;;;;69.45;24.67;;;6.50;99.90;;;;;;5017728;28;20057;-75
2022/12/01 13:13:41;;;;;;;65.43;22.90;;;6.50;99.90;;;;;;5012124;28;20041;-75
2022/12/01 13:16:19;;;;;;;64.72;22.98;;;6.50;99.90;;;;;;5014106;28;20042;-65
2022/12/01 13:18:54;;;;;;;59.97;23.52;;;6.50;99.90;;;;;;5017589;28;20045;-75
2022/12/01 13:21:22;;;;;;;65.20;23.42;;;6.50;99.90;;;;;;5018772;28;20073;-75